sensor_id;sensor_type;location;lat;lon;timestamp;temperature;humidity
74811;DHT22;63340;48.404;-4.506;2022-12-29T00:01:46;12.45;71.05
74811;DHT22;63340;48.404;-4.506;2022-12-29T00:04:13;12.40;71.40
74811;DHT22;63340;48.404;-4.506;2022-12-29T00:06:40;12.44;71.55
74811;DHT22;63340;48.404;-4.506;2022-12-29T00:09:05;12.49;71.53
74811;DHT22;63340;48.404;-4.506;2022-12-29T00:11:30;12.48;71.52
74811;DHT22;63340;48.404;-4.506;2022-12-29T00:13:56;12.51;71.36
74811;DHT22;63340;48.404;-4.506;2022-12-29T00:16:42;12.41;71.37
74811;DHT22;63340;48.404;-4.506;2022-12-29T00:19:08;12.40;71.43
74811;DHT22;63340;48.404;-4.506;2022-12-29T00:21:54;12.44;71.65
74811;DHT22;63340;48.404;-4.506;2022-12-29T00:24:38;12.42;71.55
74811;DHT22;63340;48.404;-4.506;2022-12-29T00:27:18;12.54;71.95
74811;DHT22;63340;48.404;-4.506;2022-12-29T00:30:04;12.62;71.89
74811;DHT22;63340;48.404;-4.506;2022-12-29T00:32:48;12.62;72.28
74811;DHT22;63340;48.404;-4.506;2022-12-29T00:35:39;12.62;72.20
74811;DHT22;63340;48.404;-4.506;2022-12-29T00:38:08;12.49;69.77
74811;DHT22;63340;48.404;-4.506;2022-12-29T00:40:53;12.52;69.18
74811;DHT22;63340;48.404;-4.506;2022-12-29T00:43:37;12.44;67.53
74811;DHT22;63340;48.404;-4.506;2022-12-29T00:46:21;12.40;66.84
74811;DHT22;63340;48.404;-4.506;2022-12-29T00:48:46;12.40;66.95
74811;DHT22;63340;48.404;-4.506;2022-12-29T00:51:30;12.47;66.79
74811;DHT22;63340;48.404;-4.506;2022-12-29T00:53:56;12.47;66.45
74811;DHT22;63340;48.404;-4.506;2022-12-29T00:56:21;12.48;66.31
74811;DHT22;63340;48.404;-4.506;2022-12-29T00:58:47;12.48;66.77
74811;DHT22;63340;48.404;-4.506;2022-12-29T01:01:12;12.45;66.94
74811;DHT22;63340;48.404;-4.506;2022-12-29T01:03:38;12.45;66.98
74811;DHT22;63340;48.404;-4.506;2022-12-29T01:06:06;12.44;67.38
74811;DHT22;63340;48.404;-4.506;2022-12-29T01:08:32;12.45;67.44
74811;DHT22;63340;48.404;-4.506;2022-12-29T01:11:09;12.49;67.47
74811;DHT22;63340;48.404;-4.506;2022-12-29T01:13:35;12.41;68.24
74811;DHT22;63340;48.404;-4.506;2022-12-29T01:16:01;12.33;70.62
74811;DHT22;63340;48.404;-4.506;2022-12-29T01:18:27;12.26;69.69
74811;DHT22;63340;48.404;-4.506;2022-12-29T01:21:00;12.12;69.18
74811;DHT22;63340;48.404;-4.506;2022-12-29T01:23:26;12.03;69.78
74811;DHT22;63340;48.404;-4.506;2022-12-29T01:25:51;11.97;70.13
74811;DHT22;63340;48.404;-4.506;2022-12-29T01:28:17;11.91;70.24
74811;DHT22;63340;48.404;-4.506;2022-12-29T01:30:42;11.87;70.48
74811;DHT22;63340;48.404;-4.506;2022-12-29T01:33:07;11.86;70.69
74811;DHT22;63340;48.404;-4.506;2022-12-29T01:35:33;11.91;70.96
74811;DHT22;63340;48.404;-4.506;2022-12-29T01:37:58;11.78;70.95
74811;DHT22;63340;48.404;-4.506;2022-12-29T01:40:24;11.79;70.74
74811;DHT22;63340;48.404;-4.506;2022-12-29T01:42:49;11.80;70.45
74811;DHT22;63340;48.404;-4.506;2022-12-29T01:45:16;11.76;70.08
74811;DHT22;63340;48.404;-4.506;2022-12-29T01:47:58;11.72;70.08
74811;DHT22;63340;48.404;-4.506;2022-12-29T01:50:39;11.82;70.29
74811;DHT22;63340;48.404;-4.506;2022-12-29T01:55:47;11.82;70.15
74811;DHT22;63340;48.404;-4.506;2022-12-29T01:58:14;11.85;70.23
74811;DHT22;63340;48.404;-4.506;2022-12-29T02:00:41;11.91;70.45
74811;DHT22;63340;48.404;-4.506;2022-12-29T02:03:07;11.93;69.79
74811;DHT22;63340;48.404;-4.506;2022-12-29T02:05:40;11.82;68.10
74811;DHT22;63340;48.404;-4.506;2022-12-29T02:08:07;11.86;67.79
74811;DHT22;63340;48.404;-4.506;2022-12-29T02:10:35;11.87;67.18
74811;DHT22;63340;48.404;-4.506;2022-12-29T02:13:01;11.87;67.04
74811;DHT22;63340;48.404;-4.506;2022-12-29T02:18:35;11.83;67.02
74811;DHT22;63340;48.404;-4.506;2022-12-29T02:30:11;11.82;68.99
74811;DHT22;63340;48.404;-4.506;2022-12-29T02:32:53;11.90;69.56
74811;DHT22;63340;48.404;-4.506;2022-12-29T02:40:54;11.99;69.63
74811;DHT22;63340;48.404;-4.506;2022-12-29T02:43:29;11.89;66.67
74811;DHT22;63340;48.404;-4.506;2022-12-29T02:46:06;11.72;64.50
74811;DHT22;63340;48.404;-4.506;2022-12-29T02:48:45;11.58;68.58
74811;DHT22;63340;48.404;-4.506;2022-12-29T02:51:34;11.66;69.82
74811;DHT22;63340;48.404;-4.506;2022-12-29T02:54:01;11.62;69.85
74811;DHT22;63340;48.404;-4.506;2022-12-29T02:56:45;11.63;70.28
74811;DHT22;63340;48.404;-4.506;2022-12-29T02:59:11;11.72;70.54
74811;DHT22;63340;48.404;-4.506;2022-12-29T03:04:42;11.72;69.63
74811;DHT22;63340;48.404;-4.506;2022-12-29T03:07:22;11.72;69.56
74811;DHT22;63340;48.404;-4.506;2022-12-29T03:12:42;11.86;68.76
74811;DHT22;63340;48.404;-4.506;2022-12-29T03:15:34;11.90;67.52
74811;DHT22;63340;48.404;-4.506;2022-12-29T03:18:29;11.90;67.41
74811;DHT22;63340;48.404;-4.506;2022-12-29T03:21:08;11.78;66.67
74811;DHT22;63340;48.404;-4.506;2022-12-29T03:23:37;11.73;67.55
74811;DHT22;63340;48.404;-4.506;2022-12-29T03:26:08;11.61;65.41
74811;DHT22;63340;48.404;-4.506;2022-12-29T03:28:54;11.59;65.05
74811;DHT22;63340;48.404;-4.506;2022-12-29T03:31:23;11.49;63.39
74811;DHT22;63340;48.404;-4.506;2022-12-29T03:33:50;11.49;64.14
74811;DHT22;63340;48.404;-4.506;2022-12-29T03:36:23;11.48;64.37
74811;DHT22;63340;48.404;-4.506;2022-12-29T03:39:08;11.46;65.64
74811;DHT22;63340;48.404;-4.506;2022-12-29T03:41:35;11.45;66.16
74811;DHT22;63340;48.404;-4.506;2022-12-29T03:44:00;11.52;66.38
74811;DHT22;63340;48.404;-4.506;2022-12-29T03:46:26;11.51;67.43
74811;DHT22;63340;48.404;-4.506;2022-12-29T03:48:51;11.46;68.17
74811;DHT22;63340;48.404;-4.506;2022-12-29T03:51:17;11.55;68.46
74811;DHT22;63340;48.404;-4.506;2022-12-29T03:53:42;11.57;68.75
74811;DHT22;63340;48.404;-4.506;2022-12-29T03:56:07;11.59;68.69
74811;DHT22;63340;48.404;-4.506;2022-12-29T03:58:33;11.39;66.32
74811;DHT22;63340;48.404;-4.506;2022-12-29T04:00:58;11.39;67.10
74811;DHT22;63340;48.404;-4.506;2022-12-29T04:03:24;11.36;66.86
74811;DHT22;63340;48.404;-4.506;2022-12-29T04:05:49;11.34;66.46
74811;DHT22;63340;48.404;-4.506;2022-12-29T04:08:14;11.28;65.43
74811;DHT22;63340;48.404;-4.506;2022-12-29T04:10:40;11.27;65.59
74811;DHT22;63340;48.404;-4.506;2022-12-29T04:13:05;11.35;65.36
74811;DHT22;63340;48.404;-4.506;2022-12-29T04:15:31;11.32;65.71
74811;DHT22;63340;48.404;-4.506;2022-12-29T04:17:56;11.31;66.42
74811;DHT22;63340;48.404;-4.506;2022-12-29T04:20:21;11.34;67.12
74811;DHT22;63340;48.404;-4.506;2022-12-29T04:23:06;11.39;67.47
74811;DHT22;63340;48.404;-4.506;2022-12-29T04:25:32;11.45;67.93
74811;DHT22;63340;48.404;-4.506;2022-12-29T04:27:58;11.48;68.31
74811;DHT22;63340;48.404;-4.506;2022-12-29T04:30:23;11.45;68.53
74811;DHT22;63340;48.404;-4.506;2022-12-29T04:32:49;11.48;68.53
74811;DHT22;63340;48.404;-4.506;2022-12-29T04:35:14;11.49;68.47
74811;DHT22;63340;48.404;-4.506;2022-12-29T04:37:40;11.46;67.25
74811;DHT22;63340;48.404;-4.506;2022-12-29T04:40:06;11.49;66.65
74811;DHT22;63340;48.404;-4.506;2022-12-29T04:42:31;11.48;66.01
74811;DHT22;63340;48.404;-4.506;2022-12-29T04:44:57;11.61;65.82
74811;DHT22;63340;48.404;-4.506;2022-12-29T04:47:22;11.61;65.83
74811;DHT22;63340;48.404;-4.506;2022-12-29T04:49:48;11.68;66.45
74811;DHT22;63340;48.404;-4.506;2022-12-29T04:52:13;11.42;69.68
74811;DHT22;63340;48.404;-4.506;2022-12-29T04:54:38;11.39;70.98
74811;DHT22;63340;48.404;-4.506;2022-12-29T04:57:04;11.39;70.42
74811;DHT22;63340;48.404;-4.506;2022-12-29T04:59:30;11.46;69.65
74811;DHT22;63340;48.404;-4.506;2022-12-29T05:01:55;11.43;69.41
74811;DHT22;63340;48.404;-4.506;2022-12-29T05:04:21;11.52;69.13
74811;DHT22;63340;48.404;-4.506;2022-12-29T05:06:47;11.49;68.40
74811;DHT22;63340;48.404;-4.506;2022-12-29T05:09:16;11.45;68.61
74811;DHT22;63340;48.404;-4.506;2022-12-29T05:11:50;11.41;68.49
74811;DHT22;63340;48.404;-4.506;2022-12-29T05:14:16;11.42;68.33
74811;DHT22;63340;48.404;-4.506;2022-12-29T05:16:45;11.43;68.26
74811;DHT22;63340;48.404;-4.506;2022-12-29T05:19:11;11.45;68.17
74811;DHT22;63340;48.404;-4.506;2022-12-29T05:21:36;11.51;67.38
74811;DHT22;63340;48.404;-4.506;2022-12-29T05:24:03;11.48;66.94
74811;DHT22;63340;48.404;-4.506;2022-12-29T05:26:28;11.55;67.15
74811;DHT22;63340;48.404;-4.506;2022-12-29T05:28:57;11.54;66.94
74811;DHT22;63340;48.404;-4.506;2022-12-29T05:31:38;11.51;67.12
74811;DHT22;63340;48.404;-4.506;2022-12-29T05:34:22;11.51;67.51
74811;DHT22;63340;48.404;-4.506;2022-12-29T05:37:03;11.58;67.71
74811;DHT22;63340;48.404;-4.506;2022-12-29T05:45:57;11.73;68.66
74811;DHT22;63340;48.404;-4.506;2022-12-29T05:51:23;11.80;68.49
74811;DHT22;63340;48.404;-4.506;2022-12-29T05:53:55;11.78;68.59
74811;DHT22;63340;48.404;-4.506;2022-12-29T06:00:09;11.80;68.83
74811;DHT22;63340;48.404;-4.506;2022-12-29T06:02:39;11.86;68.78
74811;DHT22;63340;48.404;-4.506;2022-12-29T06:08:48;11.89;67.70
74811;DHT22;63340;48.404;-4.506;2022-12-29T06:14:39;11.90;66.12
74811;DHT22;63340;48.404;-4.506;2022-12-29T06:17:12;11.87;64.06
74811;DHT22;63340;48.404;-4.506;2022-12-29T06:20:06;11.86;63.63
74811;DHT22;63340;48.404;-4.506;2022-12-29T06:22:56;11.89;63.22
74811;DHT22;63340;48.404;-4.506;2022-12-29T06:25:43;11.94;63.01
74811;DHT22;63340;48.404;-4.506;2022-12-29T06:29:06;11.90;62.87
74811;DHT22;63340;48.404;-4.506;2022-12-29T06:31:47;12.00;62.98
74811;DHT22;63340;48.404;-4.506;2022-12-29T06:37:41;11.79;64.84
74811;DHT22;63340;48.404;-4.506;2022-12-29T06:40:16;11.69;65.67
74811;DHT22;63340;48.404;-4.506;2022-12-29T06:42:45;11.70;66.39
74811;DHT22;63340;48.404;-4.506;2022-12-29T06:52:01;11.51;64.34
74811;DHT22;63340;48.404;-4.506;2022-12-29T06:54:56;11.54;64.37
74811;DHT22;63340;48.404;-4.506;2022-12-29T06:57:34;11.46;63.69
74811;DHT22;63340;48.404;-4.506;2022-12-29T07:00:10;11.51;64.23
74811;DHT22;63340;48.404;-4.506;2022-12-29T07:06:57;11.46;63.62
74811;DHT22;63340;48.404;-4.506;2022-12-29T07:09:45;11.42;64.47
74811;DHT22;63340;48.404;-4.506;2022-12-29T07:36:35;11.54;65.19
74811;DHT22;63340;48.404;-4.506;2022-12-29T07:39:03;11.52;65.20
74811;DHT22;63340;48.404;-4.506;2022-12-29T07:41:34;11.52;64.94
74811;DHT22;63340;48.404;-4.506;2022-12-29T07:44:05;11.55;64.95
74811;DHT22;63340;48.404;-4.506;2022-12-29T09:34:52;12.20;65.55
74811;DHT22;63340;48.404;-4.506;2022-12-29T09:37:17;12.24;65.81
74811;DHT22;63340;48.404;-4.506;2022-12-29T09:39:43;12.20;66.61
74811;DHT22;63340;48.404;-4.506;2022-12-29T09:42:15;12.18;67.02
74811;DHT22;63340;48.404;-4.506;2022-12-29T09:44:48;12.18;67.11
74811;DHT22;63340;48.404;-4.506;2022-12-29T09:47:16;12.17;67.36
74811;DHT22;63340;48.404;-4.506;2022-12-29T09:52:25;12.38;67.25
74811;DHT22;63340;48.404;-4.506;2022-12-29T09:57:38;12.72;67.09
74811;DHT22;63340;48.404;-4.506;2022-12-29T10:00:16;12.86;66.74
74811;DHT22;63340;48.404;-4.506;2022-12-29T10:02:52;13.05;66.90
74811;DHT22;63340;48.404;-4.506;2022-12-29T10:11:08;13.02;66.50
74811;DHT22;63340;48.404;-4.506;2022-12-29T10:14:07;12.68;65.25
74811;DHT22;63340;48.404;-4.506;2022-12-29T10:22:07;12.26;68.08
74811;DHT22;63340;48.404;-4.506;2022-12-29T10:24:38;12.04;68.72
74811;DHT22;63340;48.404;-4.506;2022-12-29T10:27:09;11.99;69.15
74811;DHT22;63340;48.404;-4.506;2022-12-29T10:29:43;12.03;68.88
74811;DHT22;63340;48.404;-4.506;2022-12-29T10:32:36;12.06;67.79
74811;DHT22;63340;48.404;-4.506;2022-12-29T10:35:18;11.99;68.31
74811;DHT22;63340;48.404;-4.506;2022-12-29T10:44:09;11.90;66.66
74811;DHT22;63340;48.404;-4.506;2022-12-29T10:46:37;12.06;67.68
74811;DHT22;63340;48.404;-4.506;2022-12-29T10:49:04;12.12;66.62
74811;DHT22;63340;48.404;-4.506;2022-12-29T10:51:36;12.23;66.84
74811;DHT22;63340;48.404;-4.506;2022-12-29T11:04:57;12.51;66.72
74811;DHT22;63340;48.404;-4.506;2022-12-29T11:07:28;12.62;66.81
74811;DHT22;63340;48.404;-4.506;2022-12-29T11:09:53;12.75;66.73
74811;DHT22;63340;48.404;-4.506;2022-12-29T11:12:24;12.85;66.60
74811;DHT22;63340;48.404;-4.506;2022-12-29T11:15:12;13.06;66.96
74811;DHT22;63340;48.404;-4.506;2022-12-29T11:17:57;13.13;66.57
74811;DHT22;63340;48.404;-4.506;2022-12-29T11:20:38;13.03;65.69
74811;DHT22;63340;48.404;-4.506;2022-12-29T11:23:20;13.02;66.19
74811;DHT22;63340;48.404;-4.506;2022-12-29T11:25:46;12.84;65.01
74811;DHT22;63340;48.404;-4.506;2022-12-29T11:28:16;12.89;65.90
74811;DHT22;63340;48.404;-4.506;2022-12-29T11:30:42;12.84;65.52
74811;DHT22;63340;48.404;-4.506;2022-12-29T11:33:09;12.88;66.17
74811;DHT22;63340;48.404;-4.506;2022-12-29T11:35:42;12.82;66.09
74811;DHT22;63340;48.404;-4.506;2022-12-29T11:38:22;12.75;66.41
74811;DHT22;63340;48.404;-4.506;2022-12-29T11:40:50;12.82;66.67
74811;DHT22;63340;48.404;-4.506;2022-12-29T11:43:28;12.88;66.69
74811;DHT22;63340;48.404;-4.506;2022-12-29T11:45:54;12.97;66.78
74811;DHT22;63340;48.404;-4.506;2022-12-29T11:48:22;13.16;66.76
74811;DHT22;63340;48.404;-4.506;2022-12-29T11:50:53;13.27;66.65
74811;DHT22;63340;48.404;-4.506;2022-12-29T11:53:26;13.27;66.64
74811;DHT22;63340;48.404;-4.506;2022-12-29T11:56:03;13.28;66.60
74811;DHT22;63340;48.404;-4.506;2022-12-29T11:58:31;13.20;67.37
74811;DHT22;63340;48.404;-4.506;2022-12-29T12:01:02;12.92;65.70
74811;DHT22;63340;48.404;-4.506;2022-12-29T12:03:30;12.69;64.82
74811;DHT22;63340;48.404;-4.506;2022-12-29T12:06:12;12.48;65.39
74811;DHT22;63340;48.404;-4.506;2022-12-29T12:08:56;12.40;66.21
74811;DHT22;63340;48.404;-4.506;2022-12-29T12:11:28;12.27;67.24
74811;DHT22;63340;48.404;-4.506;2022-12-29T12:14:21;12.17;68.09
74811;DHT22;63340;48.404;-4.506;2022-12-29T12:17:19;12.16;68.70
74811;DHT22;63340;48.404;-4.506;2022-12-29T12:19:47;12.17;68.78
74811;DHT22;63340;48.404;-4.506;2022-12-29T12:25:10;12.06;69.57
74811;DHT22;63340;48.404;-4.506;2022-12-29T12:27:51;11.99;69.76
74811;DHT22;63340;48.404;-4.506;2022-12-29T12:30:19;11.86;71.35
74811;DHT22;63340;48.404;-4.506;2022-12-29T12:32:56;11.73;71.94
74811;DHT22;63340;48.404;-4.506;2022-12-29T12:41:12;11.83;72.19
74811;DHT22;63340;48.404;-4.506;2022-12-29T12:57:53;12.42;71.21
74811;DHT22;63340;48.404;-4.506;2022-12-29T13:00:24;12.48;71.23
74811;DHT22;63340;48.404;-4.506;2022-12-29T13:14:17;12.45;70.95
74811;DHT22;63340;48.404;-4.506;2022-12-29T13:24:55;12.37;71.81
74811;DHT22;63340;48.404;-4.506;2022-12-29T13:30:04;12.52;71.31
74811;DHT22;63340;48.404;-4.506;2022-12-29T13:36:05;12.62;71.89
74811;DHT22;63340;48.404;-4.506;2022-12-29T13:38:43;12.74;71.74
74811;DHT22;63340;48.404;-4.506;2022-12-29T13:41:14;12.76;71.85
74811;DHT22;63340;48.404;-4.506;2022-12-29T13:43:43;12.85;71.78
74811;DHT22;63340;48.404;-4.506;2022-12-29T13:46:13;12.92;71.27
74811;DHT22;63340;48.404;-4.506;2022-12-29T13:48:53;12.86;70.64
74811;DHT22;63340;48.404;-4.506;2022-12-29T13:51:22;12.69;71.24
74811;DHT22;63340;48.404;-4.506;2022-12-29T13:56:24;12.44;69.61
74811;DHT22;63340;48.404;-4.506;2022-12-29T13:59:08;12.38;69.30
74811;DHT22;63340;48.404;-4.506;2022-12-29T14:04:20;12.47;69.18
74811;DHT22;63340;48.404;-4.506;2022-12-29T14:09:53;12.52;69.05
74811;DHT22;63340;48.404;-4.506;2022-12-29T14:17:36;12.72;68.88
74811;DHT22;63340;48.404;-4.506;2022-12-29T14:20:04;12.65;68.84
74811;DHT22;63340;48.404;-4.506;2022-12-29T14:22:33;12.66;68.94
74811;DHT22;63340;48.404;-4.506;2022-12-29T14:24:59;12.75;69.06
74811;DHT22;63340;48.404;-4.506;2022-12-29T14:27:51;12.79;69.05
74811;DHT22;63340;48.404;-4.506;2022-12-29T14:30:50;12.84;69.28
74811;DHT22;63340;48.404;-4.506;2022-12-29T14:33:16;12.88;68.99
74811;DHT22;63340;48.404;-4.506;2022-12-29T14:35:45;12.86;68.91
74811;DHT22;63340;48.404;-4.506;2022-12-29T14:38:28;12.88;68.56
74811;DHT22;63340;48.404;-4.506;2022-12-29T14:41:16;12.89;68.62
74811;DHT22;63340;48.404;-4.506;2022-12-29T14:43:52;12.97;69.08
74811;DHT22;63340;48.404;-4.506;2022-12-29T14:46:18;13.07;68.76
74811;DHT22;63340;48.404;-4.506;2022-12-29T14:48:44;13.14;69.01
74811;DHT22;63340;48.404;-4.506;2022-12-29T14:51:18;13.09;69.02
74811;DHT22;63340;48.404;-4.506;2022-12-29T14:53:46;13.07;68.65
74811;DHT22;63340;48.404;-4.506;2022-12-29T14:56:14;13.07;68.55
74811;DHT22;63340;48.404;-4.506;2022-12-29T14:58:50;12.96;68.67
74811;DHT22;63340;48.404;-4.506;2022-12-29T15:04:03;13.05;68.43
74811;DHT22;63340;48.404;-4.506;2022-12-29T15:06:30;13.02;68.02
74811;DHT22;63340;48.404;-4.506;2022-12-29T15:11:59;12.97;66.99
74811;DHT22;63340;48.404;-4.506;2022-12-29T15:14:36;12.92;66.67
74811;DHT22;63340;48.404;-4.506;2022-12-29T15:17:30;12.89;66.08
74811;DHT22;63340;48.404;-4.506;2022-12-29T15:19:56;12.92;65.86
74811;DHT22;63340;48.404;-4.506;2022-12-29T15:22:23;12.88;65.22
74811;DHT22;63340;48.404;-4.506;2022-12-29T15:24:53;12.92;65.38
74811;DHT22;63340;48.404;-4.506;2022-12-29T15:27:24;12.92;64.96
74811;DHT22;63340;48.404;-4.506;2022-12-29T15:30:01;12.86;64.11
74811;DHT22;63340;48.404;-4.506;2022-12-29T15:32:30;12.86;64.63
74811;DHT22;63340;48.404;-4.506;2022-12-29T15:37:49;12.85;65.19
74811;DHT22;63340;48.404;-4.506;2022-12-29T15:40:29;12.79;64.71
74811;DHT22;63340;48.404;-4.506;2022-12-29T15:43:03;12.78;64.91
74811;DHT22;63340;48.404;-4.506;2022-12-29T15:45:34;12.72;65.28
74811;DHT22;63340;48.404;-4.506;2022-12-29T15:48:01;12.79;65.44
74811;DHT22;63340;48.404;-4.506;2022-12-29T15:50:29;12.68;65.01
74811;DHT22;63340;48.404;-4.506;2022-12-29T15:52:56;12.65;65.51
74811;DHT22;63340;48.404;-4.506;2022-12-29T15:55:35;12.65;65.55
74811;DHT22;63340;48.404;-4.506;2022-12-29T15:58:04;12.66;65.65
74811;DHT22;63340;48.404;-4.506;2022-12-29T16:00:33;12.66;65.83
74811;DHT22;63340;48.404;-4.506;2022-12-29T16:03:01;12.65;65.29
74811;DHT22;63340;48.404;-4.506;2022-12-29T16:05:35;12.64;65.65
74811;DHT22;63340;48.404;-4.506;2022-12-29T16:08:02;12.62;65.91
74811;DHT22;63340;48.404;-4.506;2022-12-29T16:10:39;12.66;66.08
74811;DHT22;63340;48.404;-4.506;2022-12-29T16:13:20;12.65;66.08
74811;DHT22;63340;48.404;-4.506;2022-12-29T16:15:49;12.64;66.18
74811;DHT22;63340;48.404;-4.506;2022-12-29T16:18:24;12.62;66.45
74811;DHT22;63340;48.404;-4.506;2022-12-29T16:20:51;12.62;66.58
74811;DHT22;63340;48.404;-4.506;2022-12-29T16:23:24;12.65;66.63
74811;DHT22;63340;48.404;-4.506;2022-12-29T16:25:51;12.68;66.40
74811;DHT22;63340;48.404;-4.506;2022-12-29T16:28:24;12.59;66.51
74811;DHT22;63340;48.404;-4.506;2022-12-29T16:31:13;12.61;66.31
74811;DHT22;63340;48.404;-4.506;2022-12-29T16:33:52;12.55;66.29
74811;DHT22;63340;48.404;-4.506;2022-12-29T16:36:34;12.58;66.57
74811;DHT22;63340;48.404;-4.506;2022-12-29T16:39:20;12.59;66.16
74811;DHT22;63340;48.404;-4.506;2022-12-29T16:41:49;12.64;66.47
74811;DHT22;63340;48.404;-4.506;2022-12-29T16:44:25;12.62;65.74
74811;DHT22;63340;48.404;-4.506;2022-12-29T16:49:39;12.52;65.70
74811;DHT22;63340;48.404;-4.506;2022-12-29T16:52:19;12.47;65.33
74811;DHT22;63340;48.404;-4.506;2022-12-29T16:54:57;12.49;66.04
74811;DHT22;63340;48.404;-4.506;2022-12-29T16:57:32;12.48;65.75
74811;DHT22;63340;48.404;-4.506;2022-12-29T17:00:05;12.47;65.61
74811;DHT22;63340;48.404;-4.506;2022-12-29T17:02:32;12.42;65.70
74811;DHT22;63340;48.404;-4.506;2022-12-29T17:04:58;12.41;65.63
74811;DHT22;63340;48.404;-4.506;2022-12-29T17:07:26;12.45;66.18
74811;DHT22;63340;48.404;-4.506;2022-12-29T17:09:52;12.51;66.14
74811;DHT22;63340;48.404;-4.506;2022-12-29T17:12:24;12.54;66.27
74811;DHT22;63340;48.404;-4.506;2022-12-29T17:15:02;12.59;66.24
74811;DHT22;63340;48.404;-4.506;2022-12-29T17:17:36;12.64;66.16
74811;DHT22;63340;48.404;-4.506;2022-12-29T17:22:45;12.68;66.10
74811;DHT22;63340;48.404;-4.506;2022-12-29T17:25:13;12.68;66.09
74811;DHT22;63340;48.404;-4.506;2022-12-29T17:27:49;12.69;66.09
74811;DHT22;63340;48.404;-4.506;2022-12-29T17:30:19;12.71;66.10
74811;DHT22;63340;48.404;-4.506;2022-12-29T17:32:50;12.68;66.17
74811;DHT22;63340;48.404;-4.506;2022-12-29T17:35:17;12.65;66.17
74811;DHT22;63340;48.404;-4.506;2022-12-29T17:37:44;12.65;66.19
74811;DHT22;63340;48.404;-4.506;2022-12-29T17:40:13;12.64;66.38
74811;DHT22;63340;48.404;-4.506;2022-12-29T17:42:46;12.59;66.37
74811;DHT22;63340;48.404;-4.506;2022-12-29T17:45:17;12.55;66.42
74811;DHT22;63340;48.404;-4.506;2022-12-29T17:47:43;12.58;66.45
74811;DHT22;63340;48.404;-4.506;2022-12-29T17:50:12;12.59;66.38
74811;DHT22;63340;48.404;-4.506;2022-12-29T17:52:38;12.57;66.31
74811;DHT22;63340;48.404;-4.506;2022-12-29T17:55:04;12.59;66.34
74811;DHT22;63340;48.404;-4.506;2022-12-29T17:57:30;12.58;66.33
74811;DHT22;63340;48.404;-4.506;2022-12-29T17:59:56;12.58;66.32
74811;DHT22;63340;48.404;-4.506;2022-12-29T18:02:26;12.57;66.24
74811;DHT22;63340;48.404;-4.506;2022-12-29T18:04:53;12.55;66.02
74811;DHT22;63340;48.404;-4.506;2022-12-29T18:07:20;12.52;66.27
74811;DHT22;63340;48.404;-4.506;2022-12-29T18:09:46;12.49;66.05
74811;DHT22;63340;48.404;-4.506;2022-12-29T18:12:36;12.48;66.11
74811;DHT22;63340;48.404;-4.506;2022-12-29T18:15:03;12.52;66.29
74811;DHT22;63340;48.404;-4.506;2022-12-29T18:17:29;12.49;66.03
74811;DHT22;63340;48.404;-4.506;2022-12-29T18:19:55;12.54;66.25
74811;DHT22;63340;48.404;-4.506;2022-12-29T18:22:23;12.49;66.23
74811;DHT22;63340;48.404;-4.506;2022-12-29T18:24:49;12.51;66.20
74811;DHT22;63340;48.404;-4.506;2022-12-29T18:27:15;12.41;66.48
74811;DHT22;63340;48.404;-4.506;2022-12-29T18:29:46;12.41;66.65
74811;DHT22;63340;48.404;-4.506;2022-12-29T18:32:15;12.44;66.74
74811;DHT22;63340;48.404;-4.506;2022-12-29T18:34:42;12.42;66.81
74811;DHT22;63340;48.404;-4.506;2022-12-29T18:37:08;12.44;66.78
74811;DHT22;63340;48.404;-4.506;2022-12-29T18:39:35;12.47;66.81
74811;DHT22;63340;48.404;-4.506;2022-12-29T18:42:02;12.49;66.85
74811;DHT22;63340;48.404;-4.506;2022-12-29T18:44:28;12.49;66.79
74811;DHT22;63340;48.404;-4.506;2022-12-29T18:46:54;12.48;66.71
74811;DHT22;63340;48.404;-4.506;2022-12-29T18:49:20;12.44;66.76
74811;DHT22;63340;48.404;-4.506;2022-12-29T18:51:46;12.37;67.04
74811;DHT22;63340;48.404;-4.506;2022-12-29T18:54:32;12.36;67.21
74811;DHT22;63340;48.404;-4.506;2022-12-29T18:56:58;12.37;67.42
74811;DHT22;63340;48.404;-4.506;2022-12-29T18:59:25;12.38;67.48
74811;DHT22;63340;48.404;-4.506;2022-12-29T19:01:51;12.30;67.69
74811;DHT22;63340;48.404;-4.506;2022-12-29T19:04:17;12.33;67.80
74811;DHT22;63340;48.404;-4.506;2022-12-29T19:06:43;12.34;67.64
74811;DHT22;63340;48.404;-4.506;2022-12-29T19:09:09;12.31;67.36
74811;DHT22;63340;48.404;-4.506;2022-12-29T19:11:34;12.28;67.22
74811;DHT22;63340;48.404;-4.506;2022-12-29T19:14:00;12.27;67.03
74811;DHT22;63340;48.404;-4.506;2022-12-29T19:16:25;12.30;66.98
74811;DHT22;63340;48.404;-4.506;2022-12-29T19:18:51;12.27;66.22
74811;DHT22;63340;48.404;-4.506;2022-12-29T19:21:20;12.27;66.10
74811;DHT22;63340;48.404;-4.506;2022-12-29T19:23:46;12.28;65.97
74811;DHT22;63340;48.404;-4.506;2022-12-29T19:26:28;12.30;65.65
74811;DHT22;63340;48.404;-4.506;2022-12-29T19:28:54;12.31;65.54
74811;DHT22;63340;48.404;-4.506;2022-12-29T19:31:20;12.34;65.75
74811;DHT22;63340;48.404;-4.506;2022-12-29T19:33:45;12.33;65.33
74811;DHT22;63340;48.404;-4.506;2022-12-29T19:36:12;12.34;64.89
74811;DHT22;63340;48.404;-4.506;2022-12-29T19:38:39;12.30;64.64
74811;DHT22;63340;48.404;-4.506;2022-12-29T19:41:06;12.30;64.65
74811;DHT22;63340;48.404;-4.506;2022-12-29T19:43:32;12.27;65.28
74811;DHT22;63340;48.404;-4.506;2022-12-29T19:45:57;12.30;65.57
74811;DHT22;63340;48.404;-4.506;2022-12-29T19:48:23;12.36;65.83
74811;DHT22;63340;48.404;-4.506;2022-12-29T19:50:48;12.42;65.93
74811;DHT22;63340;48.404;-4.506;2022-12-29T19:53:14;12.44;66.08
74811;DHT22;63340;48.404;-4.506;2022-12-29T19:55:41;12.47;66.18
74811;DHT22;63340;48.404;-4.506;2022-12-29T19:58:07;12.48;66.32
74811;DHT22;63340;48.404;-4.506;2022-12-29T20:00:32;12.52;66.28
74811;DHT22;63340;48.404;-4.506;2022-12-29T20:02:58;12.52;66.36
74811;DHT22;63340;48.404;-4.506;2022-12-29T20:05:23;12.52;66.31
74811;DHT22;63340;48.404;-4.506;2022-12-29T20:07:49;12.45;66.56
74811;DHT22;63340;48.404;-4.506;2022-12-29T20:10:14;12.45;66.75
74811;DHT22;63340;48.404;-4.506;2022-12-29T20:12:40;12.42;66.78
74811;DHT22;63340;48.404;-4.506;2022-12-29T20:15:06;12.44;66.80
74811;DHT22;63340;48.404;-4.506;2022-12-29T20:17:33;12.47;67.05
74811;DHT22;63340;48.404;-4.506;2022-12-29T20:19:58;12.42;67.23
74811;DHT22;63340;48.404;-4.506;2022-12-29T20:22:24;12.44;67.33
74811;DHT22;63340;48.404;-4.506;2022-12-29T20:24:49;12.49;67.46
74811;DHT22;63340;48.404;-4.506;2022-12-29T20:27:14;12.51;67.55
74811;DHT22;63340;48.404;-4.506;2022-12-29T20:29:40;12.51;67.53
74811;DHT22;63340;48.404;-4.506;2022-12-29T20:32:20;12.57;67.52
74811;DHT22;63340;48.404;-4.506;2022-12-29T20:34:47;12.58;67.61
74811;DHT22;63340;48.404;-4.506;2022-12-29T20:37:14;12.59;67.64
74811;DHT22;63340;48.404;-4.506;2022-12-29T20:39:40;12.61;67.79
74811;DHT22;63340;48.404;-4.506;2022-12-29T20:42:06;12.61;68.07
74811;DHT22;63340;48.404;-4.506;2022-12-29T20:44:32;12.61;68.23